createdAt,value
2022-10-29T00:01:10.852Z,100455.75
2022-10-29T00:03:43.278Z,100451.84
2022-10-29T00:06:13.986Z,100449.67
2022-10-29T00:08:42.320Z,100444.58
2022-10-29T00:11:11.452Z,100446.42
2022-10-29T00:13:39.178Z,100446.88
2022-10-29T00:16:09.634Z,100441.81
2022-10-29T00:18:38.155Z,100438.64
2022-10-29T00:21:07.814Z,100436.38
2022-10-29T00:23:34.947Z,100432.26
2022-10-29T00:26:02.907Z,100431.83
2022-10-29T00:28:48.099Z,100427.91
2022-10-29T00:31:17.018Z,100430.20
2022-10-29T00:33:44.550Z,100427.00
2022-10-29T00:36:14.988Z,100431.47
2022-10-29T00:38:42.524Z,100431.08
2022-10-29T00:41:12.996Z,100427.56
2022-10-29T00:43:42.940Z,100429.88
2022-10-29T00:46:13.899Z,100427.00
2022-10-29T00:48:45.315Z,100422.98
2022-10-29T00:51:15.249Z,100429.16
2022-10-29T00:53:46.219Z,100425.27
2022-10-29T00:56:14.440Z,100421.20
2022-10-29T00:58:42.677Z,100417.27
2022-10-29T01:01:10.334Z,100414.70
2022-10-29T01:03:37.461Z,100410.36
2022-10-29T01:06:05.206Z,100410.32
2022-10-29T01:08:32.338Z,100403.31
2022-10-29T01:11:09.256Z,100396.66
2022-10-29T01:13:39.234Z,100395.57
2022-10-29T01:16:15.741Z,100399.47
2022-10-29T01:18:51.317Z,100405.83
2022-10-29T01:21:45.445Z,100413.66
2022-10-29T01:24:38.169Z,100416.21
2022-10-29T01:27:55.325Z,100414.56
2022-10-29T01:30:42.718Z,100417.95
2022-10-29T01:33:37.680Z,100413.09
2022-10-29T01:36:13.888Z,100408.79
2022-10-29T01:38:46.803Z,100414.23
2022-10-29T01:41:21.648Z,100412.36
2022-10-29T01:43:53.110Z,100406.39
2022-10-29T01:46:24.977Z,100405.95
2022-10-29T01:48:56.161Z,100401.15
2022-10-29T01:51:27.293Z,100401.51
2022-10-29T01:53:55.142Z,100402.43
2022-10-29T01:56:22.413Z,100403.55
2022-10-29T01:58:53.673Z,100405.41
2022-10-29T02:01:41.804Z,100401.56
2022-10-29T02:04:26.356Z,100398.73
2022-10-29T02:07:01.502Z,100397.09
2022-10-29T02:09:35.411Z,100392.59
2022-10-29T02:12:25.055Z,100391.71
2022-10-29T02:14:58.187Z,100390.36
2022-10-29T02:17:25.479Z,100391.34
2022-10-29T02:19:52.846Z,100387.45
2022-10-29T02:22:38.161Z,100388.89
2022-10-29T02:25:08.079Z,100388.59
2022-10-29T02:27:35.329Z,100382.31
2022-10-29T02:30:02.695Z,100373.79
2022-10-29T02:32:46.892Z,100370.29
2022-10-29T02:35:14.168Z,100362.29
2022-10-29T02:37:41.378Z,100356.79
2022-10-29T02:40:10.192Z,100349.97
2022-10-29T02:42:37.560Z,100351.66
2022-10-29T02:45:04.866Z,100352.81
2022-10-29T02:47:32.575Z,100350.88
2022-10-29T02:49:59.860Z,100350.41
2022-10-29T02:52:26.913Z,100345.40
2022-10-29T02:54:53.927Z,100347.94
2022-10-29T02:57:21.081Z,100343.85
2022-10-29T02:59:48.079Z,100340.98
2022-10-29T03:02:32.841Z,100337.76
2022-10-29T03:05:17.711Z,100337.56
2022-10-29T03:07:44.715Z,100334.69
2022-10-29T03:10:12.560Z,100333.90
2022-10-29T03:12:39.788Z,100334.90
2022-10-29T03:15:07.949Z,100335.42
2022-10-29T03:17:35.302Z,100333.19
2022-10-29T03:20:02.444Z,100329.02
2022-10-29T03:22:29.631Z,100326.31
2022-10-29T03:24:56.872Z,100322.80
2022-10-29T03:27:23.934Z,100316.27
2022-10-29T03:29:50.998Z,100317.02
2022-10-29T03:32:35.916Z,100310.73
2022-10-29T03:35:20.506Z,100313.49
2022-10-29T03:37:49.769Z,100308.53
2022-10-29T03:40:16.863Z,100309.02
2022-10-29T03:42:43.902Z,100306.67
2022-10-29T03:45:12.760Z,100305.35
2022-10-29T03:47:58.463Z,100304.35
2022-10-29T03:50:25.799Z,100305.33
2022-10-29T03:52:52.789Z,100313.98
2022-10-29T03:55:20.410Z,100321.43
2022-10-29T03:57:47.364Z,100319.16
2022-10-29T04:00:16.494Z,100330.65
2022-10-29T04:03:01.556Z,100331.95
2022-10-29T04:05:28.688Z,100328.29
2022-10-29T04:07:55.825Z,100329.02
2022-10-29T04:10:22.898Z,100332.67
2022-10-29T04:12:50.319Z,100322.35
2022-10-29T04:15:17.952Z,100326.86
2022-10-29T04:17:44.948Z,100326.30
2022-10-29T04:20:27.930Z,100318.81
2022-10-29T04:28:17.658Z,100309.61
2022-10-29T04:28:52.909Z,100305.90
2022-10-29T04:31:20.485Z,100302.02
2022-10-29T04:33:47.573Z,100303.27
2022-10-29T04:36:14.894Z,100298.92
2022-10-29T04:38:42.080Z,100301.07
2022-10-29T04:41:26.902Z,100297.14
2022-10-29T04:43:53.889Z,100295.89
2022-10-29T04:46:20.869Z,100300.41
2022-10-29T04:49:05.574Z,100303.21
2022-10-29T04:51:32.781Z,100303.37
2022-10-29T04:53:59.873Z,100304.18
2022-10-29T04:56:44.786Z,100296.59
2022-10-29T04:59:11.850Z,100300.89
2022-10-29T05:01:38.873Z,100299.08
2022-10-29T05:04:06.096Z,100300.12
2022-10-29T05:06:33.089Z,100303.65
2022-10-29T05:09:00.029Z,100301.66
2022-10-29T05:11:27.161Z,100306.73
2022-10-29T05:13:54.193Z,100315.34
2022-10-29T05:16:21.157Z,100311.73
2022-10-29T05:18:48.212Z,100321.39
2022-10-29T05:21:15.206Z,100334.88
2022-10-29T05:23:42.245Z,100320.31
2022-10-29T05:26:27.179Z,100333.09
2022-10-29T05:28:54.579Z,100336.70
2022-10-29T05:31:22.060Z,100340.98
2022-10-29T05:34:06.945Z,100343.57
2022-10-29T05:36:33.923Z,100341.61
2022-10-29T05:39:01.114Z,100341.42
2022-10-29T05:41:28.229Z,100335.54
2022-10-29T05:43:55.311Z,100337.46
2022-10-29T05:46:22.359Z,100329.65
2022-10-29T05:48:49.464Z,100330.25
2022-10-29T05:51:34.160Z,100326.42
2022-10-29T05:54:01.271Z,100327.27
2022-10-29T05:56:28.366Z,100332.52
2022-10-29T05:58:55.443Z,100328.62
2022-10-29T06:01:40.168Z,100322.06
2022-10-29T06:04:07.755Z,100320.35
2022-10-29T06:06:35.205Z,100317.01
2022-10-29T06:09:02.946Z,100312.39
2022-10-29T06:11:30.219Z,100314.84
2022-10-29T06:13:59.020Z,100317.84
2022-10-29T06:16:26.196Z,100315.33
2022-10-29T06:19:10.965Z,100312.44
2022-10-29T06:21:38.153Z,100311.08
2022-10-29T06:24:05.632Z,100308.58
2022-10-29T06:26:32.626Z,100308.77
2022-10-29T06:28:59.843Z,100311.19
2022-10-29T06:31:27.027Z,100322.46
2022-10-29T06:33:55.677Z,100321.28
2022-10-29T06:36:22.933Z,100322.07
2022-10-29T06:38:50.272Z,100322.96
2022-10-29T06:41:17.935Z,100322.70
2022-10-29T06:43:44.996Z,100317.06
2022-10-29T06:46:11.929Z,100319.88
2022-10-29T06:48:39.174Z,100328.84
2022-10-29T06:51:07.448Z,100335.68
2022-10-29T06:53:34.496Z,100344.25
2022-10-29T06:56:02.961Z,100345.10
2022-10-29T06:58:47.740Z,100349.20
2022-10-29T07:01:33.402Z,100348.91
2022-10-29T07:04:18.633Z,100347.63
2022-10-29T07:07:03.623Z,100346.70
2022-10-29T07:09:30.775Z,100350.83
2022-10-29T07:11:57.816Z,100349.44
2022-10-29T07:14:24.872Z,100345.86
2022-10-29T07:16:51.900Z,100346.33
2022-10-29T07:19:18.862Z,100338.48
2022-10-29T07:21:45.930Z,100338.02
2022-10-29T07:24:13.261Z,100332.27
2022-10-29T07:26:40.418Z,100334.61
2022-10-29T07:29:07.563Z,100327.79
2022-10-29T07:31:34.606Z,100325.54
2022-10-29T07:34:01.979Z,100324.73
2022-10-29T07:36:30.965Z,100329.02
2022-10-29T07:38:57.945Z,100319.73
2022-10-29T07:41:25.465Z,100325.53
2022-10-29T07:43:52.570Z,100326.46
2022-10-29T07:46:19.708Z,100329.66
2022-10-29T07:49:04.578Z,100325.17
2022-10-29T07:51:31.857Z,100326.34
2022-10-29T07:53:59.413Z,100324.85
2022-10-29T07:56:27.019Z,100326.17
2022-10-29T07:58:54.201Z,100327.07
2022-10-29T08:01:21.835Z,100322.19
2022-10-29T08:03:50.621Z,100322.55
2022-10-29T08:06:18.095Z,100323.56
2022-10-29T08:08:45.457Z,100317.77
2022-10-29T08:11:12.617Z,100315.08
2022-10-29T08:13:39.772Z,100311.96
2022-10-29T08:16:08.327Z,100307.84
2022-10-29T08:18:35.423Z,100302.87
2022-10-29T08:21:06.730Z,100302.98
2022-10-29T08:23:33.804Z,100307.30
2022-10-29T08:26:03.113Z,100322.05
2022-10-29T08:28:33.196Z,100330.61
2022-10-29T08:31:02.665Z,100335.27
2022-10-29T08:33:29.721Z,100334.13
2022-10-29T08:35:57.465Z,100335.67
2022-10-29T08:38:42.232Z,100335.29
2022-10-29T08:41:35.855Z,100334.38
2022-10-29T08:44:26.844Z,100332.78
2022-10-29T08:47:20.573Z,100331.05
2022-10-29T08:49:53.834Z,100318.70
2022-10-29T08:52:26.497Z,100322.57
2022-10-29T08:55:18.768Z,100326.23
2022-10-29T08:57:51.851Z,100320.09
2022-10-29T09:00:41.188Z,100309.81
2022-10-29T09:03:29.787Z,100326.50
2022-10-29T09:06:08.347Z,100332.79
2022-10-29T09:08:49.514Z,100334.98
2022-10-29T09:11:33.909Z,100343.98
2022-10-29T09:14:16.432Z,100340.39
2022-10-29T09:17:10.202Z,100339.97
2022-10-29T09:19:57.070Z,100339.31
2022-10-29T09:22:29.131Z,100338.92
2022-10-29T09:25:06.718Z,100338.56
2022-10-29T09:27:46.767Z,100338.48
2022-10-29T09:30:17.164Z,100340.92
2022-10-29T09:35:41.691Z,100340.54
2022-10-29T09:38:31.877Z,100339.66
2022-10-29T09:41:01.248Z,100337.34
2022-10-29T09:43:55.588Z,100324.09
2022-10-29T09:46:30.856Z,100335.29
2022-10-29T09:49:04.758Z,100340.77
2022-10-29T09:51:42.290Z,100349.13
2022-10-29T09:54:10.510Z,100357.45
2022-10-29T09:56:41.067Z,100362.25
2022-10-29T09:59:31.420Z,100366.05
2022-10-29T10:02:29.468Z,100374.73
2022-10-29T10:04:59.961Z,100376.00
2022-10-29T10:08:04.481Z,100372.64
2022-10-29T10:10:56.773Z,100375.84
2022-10-29T10:13:27.722Z,100377.84
2022-10-29T10:15:58.066Z,100370.44
2022-10-29T10:18:27.642Z,100367.13
2022-10-29T10:21:07.031Z,100354.23
2022-10-29T10:23:53.749Z,100350.42
2022-10-29T10:26:37.229Z,100355.45
2022-10-29T10:29:11.882Z,100364.25
2022-10-29T10:31:38.894Z,100362.45
2022-10-29T10:34:15.953Z,100374.73
2022-10-29T10:36:45.207Z,100360.71
2022-10-29T10:39:27.059Z,100371.55
2022-10-29T10:41:58.517Z,100379.36
2022-10-29T10:44:26.131Z,100388.38
2022-10-29T10:47:10.515Z,100395.27
2022-10-29T10:49:40.068Z,100397.84
2022-10-29T10:52:15.687Z,100390.95
2022-10-29T10:54:46.719Z,100385.56
2022-10-29T10:57:25.934Z,100385.36
2022-10-29T11:00:00.926Z,100386.42
2022-10-29T11:02:41.016Z,100379.73
2022-10-29T11:05:16.167Z,100380.61
2022-10-29T11:07:48.929Z,100377.75
2022-10-29T11:10:41.581Z,100376.45
2022-10-29T11:13:15.079Z,100376.34
2022-10-29T11:15:48.882Z,100364.59
2022-10-29T11:18:38.373Z,100371.45
2022-10-29T11:21:16.276Z,100370.08
2022-10-29T11:23:56.210Z,100370.58
2022-10-29T11:26:46.037Z,100371.37
2022-10-29T11:29:49.193Z,100374.83
2022-10-29T11:32:22.577Z,100371.38
2022-10-29T11:34:57.909Z,100373.74
2022-10-29T11:37:32.390Z,100375.83
2022-10-29T11:40:04.233Z,100378.41
2022-10-29T11:42:31.391Z,100381.00
2022-10-29T11:45:21.747Z,100386.15
2022-10-29T11:48:21.660Z,100388.58
2022-10-29T11:51:00.290Z,100388.88
2022-10-29T11:53:46.183Z,100391.96
2022-10-29T11:56:23.318Z,100394.33
2022-10-29T11:58:59.100Z,100383.85
2022-10-29T12:01:59.142Z,100380.95
2022-10-29T12:04:32.223Z,100382.81
2022-10-29T12:07:23.475Z,100379.79
2022-10-29T12:10:26.032Z,100375.17
2022-10-29T12:13:18.336Z,100365.80
2022-10-29T12:15:51.155Z,100365.20
2022-10-29T12:18:29.071Z,100366.84
2022-10-29T12:21:02.535Z,100361.53
2022-10-29T12:23:58.374Z,100361.67
2022-10-29T12:26:33.421Z,100357.23
2022-10-29T12:29:05.326Z,100362.42
2022-10-29T12:31:36.502Z,100361.86
2022-10-29T12:34:07.969Z,100362.64
2022-10-29T12:36:46.989Z,100365.73
2022-10-29T12:39:36.101Z,100370.08
2022-10-29T12:42:08.716Z,100373.09
2022-10-29T12:44:45.867Z,100383.22
2022-10-29T12:47:39.953Z,100384.05
2022-10-29T12:50:20.851Z,100385.02
2022-10-29T12:52:51.202Z,100378.55
2022-10-29T12:55:37.565Z,100374.63
2022-10-29T12:58:41.880Z,100368.84
2022-10-29T13:01:57.251Z,100365.48
2022-10-29T13:04:39.608Z,100366.81
2022-10-29T13:07:27.487Z,100371.75
2022-10-29T13:10:46.225Z,100371.02
2022-10-29T13:13:54.614Z,100369.28
2022-10-29T13:16:27.941Z,100366.35
2022-10-29T13:19:25.379Z,100371.88
2022-10-29T13:23:11.771Z,100372.60
2022-10-29T13:25:49.844Z,100381.72
2022-10-29T13:28:59.795Z,100383.58
2022-10-29T13:31:49.712Z,100384.55
2022-10-29T13:34:47.960Z,100386.00
2022-10-29T13:37:48.834Z,100386.23
2022-10-29T13:40:43.805Z,100383.48
2022-10-29T13:43:20.839Z,100385.52
2022-10-29T13:45:51.962Z,100389.67
2022-10-29T13:48:25.532Z,100385.86
2022-10-29T13:50:56.400Z,100377.35
2022-10-29T13:53:33.187Z,100382.11
2022-10-29T13:56:28.493Z,100378.39
2022-10-29T13:58:56.941Z,100381.34
